createdAt,value
2022-09-17T00:00:39.215Z,64.97
2022-09-17T00:01:39.247Z,64.97
2022-09-17T00:02:39.317Z,65.07
2022-09-17T00:03:39.260Z,64.87
2022-09-17T00:04:39.291Z,64.69
2022-09-17T00:05:39.295Z,64.21
2022-09-17T00:06:39.307Z,64.31
2022-09-17T00:07:39.321Z,64.21
2022-09-17T00:08:39.337Z,63.92
2022-09-17T00:09:39.353Z,63.73
2022-09-17T00:10:39.372Z,63.83
2022-09-17T00:11:39.383Z,63.73
2022-09-17T00:12:39.397Z,63.64
2022-09-17T00:13:39.415Z,63.73
2022-09-17T00:14:39.426Z,63.45
2022-09-17T00:15:39.441Z,63.83
2022-09-17T00:16:39.455Z,63.64
2022-09-17T00:17:39.472Z,63.17
2022-09-17T00:18:39.488Z,63.35
2022-09-17T00:19:39.504Z,63.26
2022-09-17T00:20:39.518Z,63.45
2022-09-17T00:21:39.534Z,63.07
2022-09-17T00:22:39.559Z,63.07
2022-09-17T00:23:39.564Z,63.07
2022-09-17T00:24:39.577Z,62.49
2022-09-17T00:25:39.595Z,62.88
2022-09-17T00:26:39.614Z,62.68
2022-09-17T00:27:39.631Z,62.40
2022-09-17T00:28:39.641Z,62.12
2022-09-17T00:29:39.657Z,62.21
2022-09-17T00:30:39.672Z,62.40
2022-09-17T00:31:39.747Z,61.93
2022-09-17T00:32:39.701Z,61.93
2022-09-17T00:33:39.715Z,62.02
2022-09-17T00:34:39.733Z,62.02
2022-09-17T00:35:39.749Z,61.73
2022-09-17T00:36:39.766Z,61.73
2022-09-17T00:37:39.780Z,61.73
2022-09-17T00:38:39.795Z,61.73
2022-09-17T00:39:39.810Z,61.73
2022-09-17T00:40:39.823Z,62.02
2022-09-17T00:41:39.844Z,61.93
2022-09-17T00:42:39.853Z,61.73
2022-09-17T00:43:39.870Z,61.93
2022-09-17T00:44:39.897Z,62.02
2022-09-17T00:45:40.166Z,62.02
2022-09-17T00:46:39.958Z,62.12
2022-09-17T00:47:39.932Z,62.02
2022-09-17T00:48:39.948Z,62.02
2022-09-17T00:49:39.962Z,62.02
2022-09-17T00:50:39.977Z,61.93
2022-09-17T00:51:39.993Z,61.93
2022-09-17T00:52:40.008Z,61.83
2022-09-17T00:53:40.029Z,61.83
2022-09-17T00:54:40.043Z,62.12
2022-09-17T00:55:40.056Z,62.21
2022-09-17T00:56:40.072Z,62.21
2022-09-17T00:57:40.086Z,61.54
2022-09-17T00:58:41.432Z,61.54
2022-09-17T00:59:40.116Z,61.35
2022-09-17T01:00:40.189Z,61.73
2022-09-17T01:01:40.171Z,61.64
2022-09-17T01:02:40.164Z,61.54
2022-09-17T01:03:40.177Z,61.07
2022-09-17T01:04:40.195Z,61.25
2022-09-17T01:05:40.215Z,61.07
2022-09-17T01:06:40.223Z,61.16
2022-09-17T01:07:40.239Z,61.16
2022-09-17T01:08:40.434Z,61.07
2022-09-17T01:09:40.273Z,61.16
2022-09-17T01:10:40.288Z,61.45
2022-09-17T01:11:40.300Z,61.54
2022-09-17T01:12:40.316Z,61.07
2022-09-17T01:13:40.333Z,61.07
2022-09-17T01:14:40.347Z,61.07
2022-09-17T01:15:40.460Z,60.69
2022-09-17T01:16:40.377Z,60.69
2022-09-17T01:17:40.395Z,60.78
2022-09-17T01:18:40.409Z,60.88
2022-09-17T01:19:40.424Z,60.69
2022-09-17T01:20:40.440Z,60.59
2022-09-17T01:21:40.458Z,60.59
2022-09-17T01:22:40.470Z,60.69
2022-09-17T01:23:40.486Z,60.88
2022-09-17T01:24:40.504Z,60.49
2022-09-17T01:25:40.518Z,60.59
2022-09-17T01:26:40.535Z,60.69
2022-09-17T01:27:45.029Z,60.40
2022-09-17T01:28:40.563Z,60.69
2022-09-17T01:29:40.580Z,60.40
2022-09-17T01:30:40.595Z,60.30
2022-09-17T01:31:40.637Z,60.21
2022-09-17T01:32:40.625Z,60.30
2022-09-17T01:33:40.643Z,60.40
2022-09-17T01:34:40.657Z,60.40
2022-09-17T01:35:40.672Z,60.40
2022-09-17T01:36:40.687Z,59.92
2022-09-17T01:37:40.705Z,60.30
2022-09-17T01:38:40.718Z,60.02
2022-09-17T01:39:40.735Z,60.21
2022-09-17T01:40:40.750Z,60.21
2022-09-17T01:41:40.765Z,60.30
2022-09-17T01:42:40.780Z,60.40
2022-09-17T01:43:40.796Z,60.30
2022-09-17T01:44:40.812Z,60.21
2022-09-17T01:45:40.827Z,60.02
2022-09-17T01:46:40.886Z,60.02
2022-09-17T01:47:40.858Z,59.95
2022-09-17T01:48:40.875Z,60.11
2022-09-17T01:49:40.890Z,59.92
2022-09-17T01:50:40.902Z,59.83
2022-09-17T01:51:40.920Z,60.02
2022-09-17T01:52:40.939Z,60.14
2022-09-17T01:53:40.953Z,60.05
2022-09-17T01:54:42.566Z,59.95
2022-09-17T01:55:40.985Z,59.86
2022-09-17T01:56:41.000Z,59.67
2022-09-17T01:57:41.014Z,59.57
2022-09-17T01:58:41.027Z,59.28
2022-09-17T01:59:41.044Z,59.48
2022-09-17T02:00:41.092Z,59.19
2022-09-17T02:01:41.110Z,59.09
2022-09-17T02:02:41.091Z,59.28
2022-09-17T02:03:41.108Z,59.38
2022-09-17T02:04:41.128Z,59.09
2022-09-17T02:05:41.140Z,59.28
2022-09-17T02:06:41.153Z,59.38
2022-09-17T02:07:41.175Z,59.38
2022-09-17T02:08:41.189Z,59.28
2022-09-17T02:09:41.204Z,59.38
2022-09-17T02:10:41.219Z,59.48
2022-09-17T02:11:41.237Z,59.38
2022-09-17T02:12:41.250Z,59.48
2022-09-17T02:13:41.268Z,59.38
2022-09-17T02:14:41.280Z,59.28
2022-09-17T02:15:41.296Z,59.38
2022-09-17T02:16:41.312Z,59.09
2022-09-17T02:17:41.328Z,59.28
2022-09-17T02:18:41.358Z,59.28
2022-09-17T02:19:41.361Z,59.19
2022-09-17T02:20:41.376Z,59.19
2022-09-17T02:21:41.394Z,59.38
2022-09-17T02:22:41.409Z,59.09
2022-09-17T02:23:41.423Z,59.38
2022-09-17T02:24:41.441Z,59.19
2022-09-17T02:25:41.454Z,59.28
2022-09-17T02:26:41.469Z,59.19
2022-09-17T02:27:41.487Z,59.19
2022-09-17T02:28:41.502Z,59.28
2022-09-17T02:29:41.518Z,59.48
2022-09-17T02:30:41.534Z,59.19
2022-09-17T02:31:41.603Z,59.00
2022-09-17T02:32:41.566Z,59.19
2022-09-17T02:33:41.583Z,59.19
2022-09-17T02:34:41.609Z,58.91
2022-09-17T02:35:41.617Z,59.00
2022-09-17T02:36:41.629Z,59.00
2022-09-17T02:37:41.651Z,58.81
2022-09-17T02:38:41.662Z,59.09
2022-09-17T02:39:41.678Z,58.81
2022-09-17T02:40:41.694Z,59.00
2022-09-17T02:41:41.711Z,58.91
2022-09-17T02:42:41.775Z,59.00
2022-09-17T02:43:41.742Z,58.81
2022-09-17T02:44:41.759Z,58.81
2022-09-17T02:45:41.773Z,59.28
2022-09-17T02:46:41.820Z,59.28
2022-09-17T02:47:41.804Z,58.62
2022-09-17T02:48:41.820Z,59.28
2022-09-17T02:49:41.837Z,59.28
2022-09-17T02:50:41.852Z,59.28
2022-09-17T02:51:41.868Z,58.91
2022-09-17T02:52:41.884Z,58.91
2022-09-17T02:53:41.901Z,58.91
2022-09-17T02:54:41.917Z,58.81
2022-09-17T02:55:41.937Z,59.09
2022-09-17T02:56:41.951Z,59.09
2022-09-17T02:57:41.965Z,59.00
2022-09-17T02:58:41.979Z,59.19
2022-09-17T02:59:41.997Z,59.28
2022-09-17T03:00:42.025Z,59.19
2022-09-17T03:01:42.075Z,59.19
2022-09-17T03:02:42.045Z,59.09
2022-09-17T03:03:42.059Z,59.28
2022-09-17T03:04:42.077Z,59.00
2022-09-17T03:05:42.092Z,58.62
2022-09-17T03:06:42.107Z,58.62
2022-09-17T03:07:42.122Z,58.62
2022-09-17T03:08:42.139Z,58.72
2022-09-17T03:09:42.158Z,58.62
2022-09-17T03:10:42.171Z,59.00
2022-09-17T03:11:42.192Z,58.81
2022-09-17T03:12:42.206Z,59.28
2022-09-17T03:13:42.221Z,59.19
2022-09-17T03:14:42.231Z,59.19
2022-09-17T03:15:42.348Z,59.19
2022-09-17T03:16:42.267Z,59.19
2022-09-17T03:17:42.283Z,59.19
2022-09-17T03:18:42.297Z,59.19
2022-09-17T03:19:42.314Z,59.19
2022-09-17T03:20:42.331Z,59.19
2022-09-17T03:21:42.347Z,59.19
2022-09-17T03:22:42.362Z,59.28
2022-09-17T03:23:42.378Z,58.72
2022-09-17T03:24:42.395Z,59.00
2022-09-17T03:25:42.412Z,59.19
2022-09-17T03:26:42.426Z,58.81
2022-09-17T03:27:42.442Z,58.91
2022-09-17T03:28:42.461Z,58.81
2022-09-17T03:29:42.478Z,58.81
2022-09-17T03:30:42.495Z,58.72
2022-09-17T03:31:42.586Z,58.81
2022-09-17T03:32:42.522Z,58.91
2022-09-17T03:33:42.539Z,58.91
2022-09-17T03:34:42.554Z,58.52
2022-09-17T03:35:42.571Z,59.00
2022-09-17T03:36:42.589Z,58.72
2022-09-17T03:37:42.603Z,58.91
2022-09-17T03:38:42.618Z,58.72
2022-09-17T03:39:42.632Z,58.62
2022-09-17T03:40:42.652Z,58.81
2022-09-17T03:41:42.667Z,58.81
2022-09-17T03:42:42.690Z,59.00
2022-09-17T03:43:42.700Z,58.72
2022-09-17T03:44:45.266Z,58.72
2022-09-17T03:45:42.737Z,58.81
2022-09-17T03:46:42.781Z,58.81
2022-09-17T03:47:42.763Z,58.81
2022-09-17T03:48:42.779Z,58.81
2022-09-17T03:49:42.797Z,58.91
2022-09-17T03:50:42.811Z,58.91
2022-09-17T03:51:42.829Z,58.62
2022-09-17T03:52:42.844Z,58.81
2022-09-17T03:53:42.860Z,58.91
2022-09-17T03:54:42.876Z,58.62
2022-09-17T03:55:42.891Z,58.81
2022-09-17T03:56:42.908Z,58.62
2022-09-17T03:57:42.927Z,58.62
2022-09-17T03:58:42.940Z,58.62
2022-09-17T03:59:42.960Z,58.52
2022-09-17T04:00:42.983Z,58.62
2022-09-17T04:01:43.072Z,58.62
2022-09-17T04:02:43.085Z,58.72
2022-09-17T04:03:43.021Z,58.62
2022-09-17T04:04:43.036Z,58.72
2022-09-17T04:05:43.059Z,58.72
2022-09-17T04:06:43.067Z,58.62
2022-09-17T04:07:43.084Z,58.72
2022-09-17T04:08:43.099Z,58.62
2022-09-17T04:09:43.116Z,58.52
2022-09-17T04:10:43.134Z,58.52
2022-09-17T04:11:43.148Z,58.62
2022-09-17T04:12:43.166Z,58.52
2022-09-17T04:13:43.179Z,58.72
2022-09-17T04:14:43.195Z,58.62
2022-09-17T04:15:43.248Z,58.72
2022-09-17T04:16:43.228Z,58.72
2022-09-17T04:17:43.245Z,58.72
2022-09-17T04:18:43.260Z,58.52
2022-09-17T04:19:43.276Z,58.62
2022-09-17T04:20:43.292Z,58.43
2022-09-17T04:21:43.308Z,58.24
2022-09-17T04:22:43.325Z,58.43
2022-09-17T04:23:43.340Z,58.43
2022-09-17T04:24:43.356Z,58.43
2022-09-17T04:25:43.373Z,58.52
2022-09-17T04:26:43.391Z,58.52
2022-09-17T04:27:43.404Z,58.52
2022-09-17T04:28:43.421Z,57.86
2022-09-17T04:29:43.436Z,58.04
2022-09-17T04:30:43.473Z,58.14
2022-09-17T04:31:43.562Z,58.14
2022-09-17T04:32:43.484Z,58.04
2022-09-17T04:33:43.499Z,57.57
2022-09-17T04:34:43.523Z,57.76
2022-09-17T04:35:43.537Z,57.86
2022-09-17T04:36:43.547Z,57.76
2022-09-17T04:37:43.564Z,57.67
2022-09-17T04:38:43.583Z,57.67
2022-09-17T04:39:43.596Z,57.76
2022-09-17T04:40:43.636Z,57.95
2022-09-17T04:41:43.635Z,58.14
2022-09-17T04:42:43.645Z,58.14
2022-09-17T04:43:43.659Z,57.76
2022-09-17T04:44:43.678Z,57.57
2022-09-17T04:45:43.695Z,57.48
2022-09-17T04:46:43.786Z,57.57
2022-09-17T04:47:43.723Z,57.67
2022-09-17T04:48:43.743Z,57.48
2022-09-17T04:49:43.758Z,57.57
2022-09-17T04:50:43.772Z,57.57
2022-09-17T04:51:43.786Z,57.48
2022-09-17T04:52:43.804Z,57.76
2022-09-17T04:53:43.822Z,57.48
2022-09-17T04:54:43.836Z,57.48
2022-09-17T04:55:43.853Z,57.57
2022-09-17T04:56:43.868Z,57.67
2022-09-17T04:57:43.884Z,57.76
2022-09-17T04:58:43.899Z,57.86
2022-09-17T04:59:43.918Z,57.76
2022-09-17T05:00:43.980Z,57.48
2022-09-17T05:01:43.985Z,57.19
2022-09-17T05:02:43.967Z,57.28
2022-09-17T05:03:43.980Z,57.38
2022-09-17T05:04:43.997Z,57.00
2022-09-17T05:05:44.013Z,57.09
2022-09-17T05:06:44.029Z,56.90
2022-09-17T05:07:44.043Z,57.28
2022-09-17T05:08:44.062Z,57.19
2022-09-17T05:09:44.079Z,57.09
2022-09-17T05:10:44.090Z,57.03
2022-09-17T05:11:44.108Z,57.00
2022-09-17T05:12:44.127Z,57.09
2022-09-17T05:13:44.142Z,57.00
2022-09-17T05:14:44.159Z,57.00
2022-09-17T05:15:44.202Z,57.22
2022-09-17T05:16:44.190Z,56.90
2022-09-17T05:17:44.209Z,56.90
2022-09-17T05:18:44.224Z,57.09
2022-09-17T05:19:44.239Z,57.28
2022-09-17T05:20:44.254Z,57.28
2022-09-17T05:21:44.270Z,57.28
2022-09-17T05:22:44.289Z,56.84
2022-09-17T05:23:44.303Z,57.09
2022-09-17T05:24:44.320Z,56.84
2022-09-17T05:25:44.337Z,56.65
2022-09-17T05:26:44.352Z,56.84
2022-09-17T05:27:44.367Z,56.84
2022-09-17T05:28:44.384Z,56.74
2022-09-17T05:29:44.403Z,56.84
2022-09-17T05:30:44.417Z,56.84
2022-09-17T05:31:44.481Z,56.93
2022-09-17T05:32:44.450Z,56.93
2022-09-17T05:33:44.468Z,56.84
2022-09-17T05:34:44.482Z,56.93
2022-09-17T05:35:44.512Z,56.93
2022-09-17T05:36:44.516Z,56.84
2022-09-17T05:37:44.535Z,56.65
2022-09-17T05:38:44.548Z,56.46
2022-09-17T05:39:44.565Z,56.55
2022-09-17T05:40:44.583Z,56.74
2022-09-17T05:41:44.598Z,56.46
2022-09-17T05:42:44.615Z,55.98
2022-09-17T05:43:44.632Z,56.07
2022-09-17T05:44:44.648Z,56.07
2022-09-17T05:45:44.675Z,56.07
2022-09-17T05:46:44.737Z,55.88
2022-09-17T05:47:44.699Z,55.79
2022-09-17T05:48:44.720Z,55.69
2022-09-17T05:49:44.732Z,55.60
2022-09-17T05:50:44.748Z,55.88
2022-09-17T05:51:44.766Z,55.79
2022-09-17T05:52:44.782Z,55.88
2022-09-17T05:53:44.800Z,56.07
2022-09-17T05:54:44.816Z,55.88
2022-09-17T05:55:44.832Z,56.17
2022-09-17T05:56:44.852Z,55.98
2022-09-17T05:57:44.867Z,56.17
2022-09-17T05:58:44.893Z,56.17
2022-09-17T05:59:44.898Z,56.74
2022-09-17T06:00:44.916Z,56.26
2022-09-17T06:01:44.990Z,56.84
2022-09-17T06:02:45.006Z,57.12
2022-09-17T06:03:44.968Z,57.22
2022-09-17T06:04:44.985Z,57.12
2022-09-17T06:05:45.012Z,57.22
2022-09-17T06:06:45.016Z,57.12
2022-09-17T06:07:45.033Z,57.22
2022-09-17T06:08:45.050Z,57.22
2022-09-17T06:09:45.067Z,57.03
2022-09-17T06:10:45.083Z,57.22
2022-09-17T06:11:45.100Z,57.12
2022-09-17T06:12:45.117Z,57.12
2022-09-17T06:13:45.133Z,56.55
2022-09-17T06:14:45.149Z,56.84
2022-09-17T06:15:45.164Z,56.74
2022-09-17T06:16:45.310Z,56.74
2022-09-17T06:17:45.209Z,57.22
2022-09-17T06:18:45.218Z,57.03
2022-09-17T06:19:45.234Z,57.12
2022-09-17T06:20:45.250Z,57.22
2022-09-17T06:21:45.268Z,57.31
2022-09-17T06:22:45.282Z,57.15
2022-09-17T06:23:45.301Z,57.22
2022-09-17T06:24:45.318Z,57.06
2022-09-17T06:25:45.336Z,57.12
2022-09-17T06:26:45.350Z,57.70
2022-09-17T06:27:45.375Z,58.07
2022-09-17T06:28:45.391Z,57.89
2022-09-17T06:29:45.402Z,58.20
2022-09-17T06:30:45.421Z,58.36
2022-09-17T06:31:45.491Z,59.12
2022-09-17T06:32:45.465Z,59.31
2022-09-17T06:33:45.468Z,58.75
2022-09-17T06:34:45.483Z,58.97
2022-09-17T06:35:45.504Z,59.25
2022-09-17T06:36:45.517Z,58.48
2022-09-17T06:37:45.539Z,58.48
2022-09-17T06:38:45.555Z,59.25
2022-09-17T06:39:45.571Z,59.16
2022-09-17T06:40:45.587Z,59.31
2022-09-17T06:41:45.603Z,59.92
2022-09-17T06:42:45.624Z,60.58
2022-09-17T06:43:45.638Z,60.46
2022-09-17T06:44:45.655Z,60.68
2022-09-17T06:45:45.674Z,60.78
2022-09-17T06:46:45.711Z,61.25
2022-09-17T06:47:45.708Z,61.73
2022-09-17T06:48:45.723Z,61.73
2022-09-17T06:49:45.747Z,61.92
2022-09-17T06:50:45.757Z,61.73
2022-09-17T06:51:45.774Z,62.02
2022-09-17T06:52:45.792Z,62.02
2022-09-17T06:53:45.862Z,61.70
2022-09-17T06:54:45.826Z,62.30
2022-09-17T06:55:45.843Z,61.92
2022-09-17T06:56:45.858Z,63.26
2022-09-17T06:57:45.874Z,63.16
2022-09-17T06:58:45.894Z,63.26
2022-09-17T06:59:45.915Z,63.07
2022-09-17T07:00:45.967Z,63.26
2022-09-17T07:01:45.977Z,63.23
2022-09-17T07:02:45.959Z,63.54
2022-09-17T07:03:45.976Z,64.02
2022-09-17T07:04:45.997Z,64.02
2022-09-17T07:05:46.012Z,63.83
2022-09-17T07:06:46.027Z,63.45
2022-09-17T07:07:46.044Z,63.16
2022-09-17T07:08:46.080Z,62.88
2022-09-17T07:09:46.081Z,63.07
2022-09-17T07:10:46.098Z,62.97
2022-09-17T07:11:46.117Z,63.26
2022-09-17T07:12:49.785Z,63.35
2022-09-17T07:13:46.149Z,63.64
2022-09-17T07:14:46.166Z,63.73
2022-09-17T07:15:46.211Z,63.16
2022-09-17T07:16:46.202Z,62.78
2022-09-17T07:17:46.218Z,63.73
2022-09-17T07:18:46.235Z,64.50
2022-09-17T07:19:46.255Z,65.26
2022-09-17T07:20:46.272Z,65.74
2022-09-17T07:21:46.291Z,65.45
2022-09-17T07:22:46.308Z,66.02
2022-09-17T07:23:46.350Z,66.50
2022-09-17T07:24:46.344Z,67.93
2022-09-17T07:25:46.361Z,68.79
2022-09-17T07:26:46.381Z,68.98
2022-09-17T07:27:46.398Z,68.92
2022-09-17T07:28:46.412Z,67.87
2022-09-17T07:29:46.432Z,67.97
2022-09-17T07:30:46.450Z,67.87
2022-09-17T07:31:46.497Z,67.49
2022-09-17T07:32:46.484Z,67.49
2022-09-17T07:33:46.506Z,67.49
2022-09-17T07:34:46.519Z,68.35
2022-09-17T07:35:46.539Z,68.82
2022-09-17T07:36:46.560Z,69.40
2022-09-17T07:37:46.578Z,69.02
2022-09-17T07:38:46.654Z,69.40
2022-09-17T07:39:46.611Z,70.73
2022-09-17T07:40:46.643Z,71.50
2022-09-17T07:41:46.647Z,71.02
2022-09-17T07:42:46.664Z,71.12
2022-09-17T07:43:46.683Z,70.92
2022-09-17T07:44:46.706Z,71.69
2022-09-17T07:45:46.720Z,72.17
2022-09-17T07:46:46.789Z,73.12
2022-09-17T07:47:46.756Z,73.50
2022-09-17T07:48:46.774Z,74.65
2022-09-17T07:49:46.792Z,75.51
2022-09-17T07:50:46.812Z,74.46
2022-09-17T07:51:46.833Z,73.50
2022-09-17T07:52:46.851Z,74.69
2022-09-17T07:53:46.947Z,74.40
2022-09-17T07:54:46.884Z,74.21
2022-09-17T07:55:46.907Z,74.88
2022-09-17T07:56:46.923Z,77.08
2022-09-17T07:57:46.952Z,77.65
2022-09-17T07:58:46.961Z,77.55
2022-09-17T07:59:46.979Z,76.31
2022-09-17T08:00:46.996Z,77.17
2022-09-17T08:01:47.130Z,77.36
2022-09-17T08:02:47.125Z,79.08
2022-09-17T08:03:47.053Z,80.70
2022-09-17T08:04:47.086Z,83.18
2022-09-17T08:05:47.094Z,84.91
2022-09-17T08:06:47.106Z,83.95
2022-09-17T08:07:47.129Z,82.90
2022-09-17T08:08:47.145Z,82.42
2022-09-17T08:09:47.166Z,83.95
2022-09-17T08:10:47.183Z,85.77
2022-09-17T08:12:02.404Z,86.43
2022-09-17T08:12:47.223Z,86.43
2022-09-17T08:13:47.240Z,85.71
2022-09-17T08:14:47.260Z,84.72
2022-09-17T08:15:47.353Z,84.95
2022-09-17T08:16:47.342Z,84.76
2022-09-17T08:17:47.330Z,84.76
2022-09-17T08:18:47.345Z,85.52
2022-09-17T08:19:47.354Z,87.05
2022-09-17T08:20:47.383Z,89.34
2022-09-17T08:21:47.391Z,91.06
2022-09-17T08:22:50.133Z,93.88
2022-09-17T08:23:47.473Z,94.89
2022-09-17T08:24:47.449Z,93.60
2022-09-17T08:25:47.468Z,92.97
2022-09-17T08:26:47.493Z,91.83
2022-09-17T08:27:47.511Z,92.26
2022-09-17T08:28:47.528Z,91.54
2022-09-17T08:29:47.542Z,92.21
2022-09-17T08:30:47.563Z,92.30
2022-09-17T08:31:47.649Z,92.30
2022-09-17T08:32:47.602Z,93.74
2022-09-17T08:33:47.621Z,93.93
2022-09-17T08:34:47.642Z,95.46
2022-09-17T08:35:47.664Z,94.89
2022-09-17T08:36:47.679Z,95.17
2022-09-17T08:37:47.700Z,95.75
2022-09-17T08:38:47.761Z,95.84
2022-09-17T08:39:47.737Z,96.03
2022-09-17T08:40:47.757Z,94.79
2022-09-17T08:41:47.780Z,96.32
2022-09-17T08:42:47.793Z,94.51
2022-09-17T08:43:47.814Z,95.17
2022-09-17T08:44:49.122Z,99.99
2022-09-17T08:45:47.854Z,99.95
2022-09-17T08:46:47.946Z,99.99
2022-09-17T08:47:47.891Z,99.57
2022-09-17T08:48:47.910Z,98.99
2022-09-17T08:49:47.929Z,99.57
2022-09-17T08:50:47.948Z,99.99
2022-09-17T08:51:47.968Z,99.57
2022-09-17T08:52:47.991Z,99.99
2022-09-17T08:53:48.009Z,99.99
2022-09-17T08:54:48.025Z,99.99
2022-09-17T08:55:48.045Z,99.99
2022-09-17T08:56:48.068Z,99.99
2022-09-17T08:57:48.083Z,99.99
2022-09-17T08:58:48.103Z,99.99
2022-09-17T08:59:48.122Z,99.99
2022-09-17T09:00:48.140Z,99.99
2022-09-17T09:01:48.219Z,99.99
2022-09-17T09:02:48.210Z,99.99
2022-09-17T09:03:48.200Z,99.99
2022-09-17T09:04:48.229Z,99.99
2022-09-17T09:05:48.237Z,99.99
2022-09-17T09:06:48.258Z,99.99
2022-09-17T09:07:48.276Z,99.99
2022-09-17T09:08:48.296Z,99.99
2022-09-17T09:09:48.315Z,99.99
2022-09-17T09:10:48.334Z,99.99
2022-09-17T09:11:48.354Z,99.99
2022-09-17T09:12:48.372Z,99.99
2022-09-17T09:13:48.393Z,99.99
2022-09-17T09:14:48.408Z,99.99
2022-09-17T09:15:48.493Z,99.99
2022-09-17T09:16:48.447Z,99.99
2022-09-17T09:17:48.466Z,99.99
2022-09-17T09:18:48.484Z,99.99
2022-09-17T09:19:48.506Z,99.99
2022-09-17T09:20:48.523Z,99.99
2022-09-17T09:21:48.542Z,99.99
2022-09-17T09:22:48.562Z,99.99
2022-09-17T09:23:48.648Z,99.99
2022-09-17T09:24:48.599Z,99.99
2022-09-17T09:25:48.617Z,99.99
2022-09-17T09:26:48.636Z,99.99
2022-09-17T09:27:48.657Z,99.99
2022-09-17T09:28:48.678Z,99.99
2022-09-17T09:29:48.694Z,99.99
2022-09-17T09:30:48.713Z,99.99
2022-09-17T09:31:48.841Z,99.99
2022-09-17T09:32:48.753Z,99.99
2022-09-17T09:33:48.772Z,99.99
2022-09-17T09:34:48.788Z,99.99
2022-09-17T09:35:48.808Z,99.99
2022-09-17T09:36:48.830Z,99.99
2022-09-17T09:37:48.849Z,99.99
2022-09-17T09:38:48.933Z,99.99
2022-09-17T09:39:48.888Z,99.99
2022-09-17T09:40:48.906Z,99.99
2022-09-17T09:41:48.927Z,99.99
2022-09-17T09:42:48.959Z,99.99
2022-09-17T09:44:05.280Z,99.99
2022-09-17T09:44:48.988Z,99.99
2022-09-17T09:45:49.004Z,99.99
2022-09-17T09:46:49.074Z,99.99
2022-09-17T09:47:49.045Z,99.99
2022-09-17T09:48:49.064Z,99.99
2022-09-17T09:49:49.084Z,99.99
2022-09-17T09:51:05.783Z,99.99
2022-09-17T09:51:49.124Z,99.99
2022-09-17T09:52:49.142Z,99.99
2022-09-17T09:53:49.219Z,99.99
2022-09-17T09:54:49.181Z,99.99
2022-09-17T09:55:49.203Z,99.99
2022-09-17T09:56:49.222Z,99.99
2022-09-17T09:57:49.249Z,99.99
2022-09-17T09:58:49.263Z,99.99
2022-09-17T09:59:49.284Z,99.99
2022-09-17T10:00:49.303Z,99.99
2022-09-17T10:01:49.441Z,99.99
2022-09-17T10:02:49.501Z,99.99
2022-09-17T10:03:49.360Z,99.99
2022-09-17T10:04:53.218Z,99.99
2022-09-17T10:05:49.395Z,99.99
2022-09-17T10:06:49.414Z,99.99
2022-09-17T10:07:49.441Z,99.99
2022-09-17T10:08:49.516Z,99.99
2022-09-17T10:09:49.495Z,99.99
2022-09-17T10:10:49.489Z,99.99
2022-09-17T10:11:49.508Z,99.99
2022-09-17T10:12:49.527Z,99.99
2022-09-17T10:13:49.547Z,99.99
2022-09-17T10:14:49.565Z,99.99
2022-09-17T10:15:49.649Z,99.99
2022-09-17T10:16:49.604Z,99.99
2022-09-17T10:17:49.627Z,99.99
2022-09-17T10:18:49.642Z,99.99
2022-09-17T10:19:49.662Z,99.99
2022-09-17T10:20:49.682Z,99.99
2022-09-17T10:21:49.701Z,99.99
2022-09-17T10:22:49.717Z,99.99
2022-09-17T10:23:49.735Z,99.99
2022-09-17T10:24:49.758Z,99.99
2022-09-17T10:25:49.775Z,99.99
2022-09-17T10:26:49.797Z,99.99
2022-09-17T10:27:49.813Z,99.99
2022-09-17T10:28:49.832Z,99.99
2022-09-17T10:29:49.854Z,99.99
2022-09-17T10:30:49.871Z,99.99
2022-09-17T10:31:49.965Z,99.99
2022-09-17T10:32:49.910Z,99.99
2022-09-17T10:33:49.929Z,99.99
2022-09-17T10:34:49.948Z,99.99
2022-09-17T10:35:49.968Z,99.99
2022-09-17T10:36:49.990Z,99.99
2022-09-17T10:37:50.008Z,99.99
2022-09-17T10:38:50.027Z,99.99
2022-09-17T10:39:50.097Z,99.99
2022-09-17T10:40:50.067Z,99.99
2022-09-17T10:41:50.094Z,99.99
2022-09-17T10:42:50.106Z,99.99
2022-09-17T10:43:50.126Z,99.99
2022-09-17T10:44:50.144Z,99.99
2022-09-17T10:45:50.164Z,99.99
2022-09-17T10:46:50.225Z,99.99
2022-09-17T10:47:50.204Z,99.99
2022-09-17T10:48:50.224Z,99.99
2022-09-17T10:49:50.249Z,99.99
2022-09-17T10:50:50.265Z,99.99
2022-09-17T10:51:50.284Z,99.99
2022-09-17T10:52:50.302Z,99.99
2022-09-17T10:53:50.323Z,99.99
2022-09-17T10:54:50.351Z,99.99
2022-09-17T10:55:50.363Z,99.99
2022-09-17T10:56:50.381Z,99.99
2022-09-17T10:57:50.432Z,99.99
2022-09-17T10:58:50.421Z,99.99
2022-09-17T10:59:50.442Z,99.99
2022-09-17T11:00:50.463Z,99.99
2022-09-17T11:01:50.561Z,99.99
2022-09-17T11:02:50.532Z,99.99
2022-09-17T11:03:50.523Z,99.99
2022-09-17T11:04:50.542Z,99.99
2022-09-17T11:05:50.562Z,99.99
2022-09-17T11:06:50.582Z,99.99
2022-09-17T11:07:50.602Z,99.99
2022-09-17T11:08:50.624Z,99.99
2022-09-17T11:09:50.642Z,99.99
2022-09-17T11:10:50.661Z,99.99
2022-09-17T11:11:50.682Z,99.99
2022-09-17T11:12:50.700Z,99.99
2022-09-17T11:13:50.723Z,99.99
2022-09-17T11:14:50.759Z,99.99
2022-09-17T11:15:53.080Z,99.99
2022-09-17T11:16:50.854Z,99.99
2022-09-17T11:17:50.799Z,99.99
2022-09-17T11:18:50.817Z,99.99
2022-09-17T11:19:50.838Z,99.99
2022-09-17T11:20:50.860Z,99.99
2022-09-17T11:21:50.879Z,99.99
2022-09-17T11:22:50.897Z,99.99
2022-09-17T11:23:50.915Z,99.99
2022-09-17T11:24:50.944Z,99.99
2022-09-17T11:25:50.956Z,99.99
2022-09-17T11:26:50.980Z,99.99
2022-09-17T11:27:50.995Z,99.99
2022-09-17T11:28:51.027Z,99.99
2022-09-17T11:29:51.035Z,99.99
2022-09-17T11:30:51.057Z,99.99
2022-09-17T11:31:51.118Z,99.99
2022-09-17T11:32:51.095Z,99.99
2022-09-17T11:33:51.115Z,99.99
2022-09-17T11:34:51.138Z,99.99
2022-09-17T11:35:51.156Z,99.99
2022-09-17T11:36:51.180Z,99.99
2022-09-17T11:37:51.210Z,99.99
2022-09-17T11:38:51.212Z,99.99
2022-09-17T11:39:51.280Z,99.99
2022-09-17T11:40:51.260Z,99.99
2022-09-17T11:41:51.272Z,99.99
2022-09-17T11:42:51.293Z,99.99
2022-09-17T11:43:51.313Z,99.99
2022-09-17T11:44:51.331Z,99.99
2022-09-17T11:45:51.353Z,99.99
2022-09-17T11:46:51.414Z,99.99
2022-09-17T11:47:51.389Z,99.99
2022-09-17T11:48:51.410Z,99.99
2022-09-17T11:49:51.430Z,99.99
2022-09-17T11:50:51.452Z,99.99
2022-09-17T11:51:51.473Z,99.99
2022-09-17T11:52:51.488Z,99.99
2022-09-17T11:53:51.511Z,99.99
2022-09-17T11:54:51.527Z,99.99
2022-09-17T11:55:51.549Z,99.99
2022-09-17T11:56:51.570Z,99.99
2022-09-17T11:57:51.592Z,99.99
2022-09-17T11:58:51.619Z,99.99
2022-09-17T11:59:51.633Z,99.99
2022-09-17T12:00:51.651Z,99.99
2022-09-17T12:01:51.728Z,99.99
2022-09-17T12:02:51.735Z,99.99
2022-09-17T12:03:51.711Z,99.99
2022-09-17T12:04:51.735Z,99.99
2022-09-17T12:05:51.753Z,99.99
2022-09-17T12:06:51.804Z,99.99
2022-09-17T12:07:51.792Z,99.99
2022-09-17T12:08:51.813Z,99.99
2022-09-17T12:09:51.833Z,99.99
2022-09-17T12:10:51.853Z,99.99
2022-09-17T12:11:51.875Z,99.99
2022-09-17T12:12:51.897Z,99.99
2022-09-17T12:13:51.913Z,99.99
2022-09-17T12:14:51.934Z,99.99
2022-09-17T12:15:53.636Z,99.99
2022-09-17T12:16:51.982Z,99.99
2022-09-17T12:18:03.848Z,99.99
2022-09-17T12:18:52.014Z,99.99
2022-09-17T12:19:52.034Z,99.99
2022-09-17T12:20:52.054Z,99.99
2022-09-17T12:21:52.076Z,99.99
2022-09-17T12:22:52.095Z,99.99
2022-09-17T12:23:52.114Z,99.99
2022-09-17T12:24:52.133Z,99.99
2022-09-17T12:25:52.153Z,99.99
2022-09-17T12:26:52.173Z,99.99
2022-09-17T12:27:52.190Z,99.99
2022-09-17T12:28:52.212Z,99.99
2022-09-17T12:29:52.229Z,99.99
2022-09-17T12:30:52.248Z,99.99
2022-09-17T12:31:52.267Z,99.99
2022-09-17T12:32:52.288Z,99.99
2022-09-17T12:33:52.307Z,99.99
2022-09-17T12:34:52.325Z,99.99
2022-09-17T12:36:04.067Z,99.99
2022-09-17T12:36:52.362Z,99.99
2022-09-17T12:37:52.381Z,99.99
2022-09-17T12:38:52.398Z,99.99
2022-09-17T12:39:52.461Z,99.99
2022-09-17T12:40:52.436Z,99.99
2022-09-17T12:41:52.459Z,99.99
2022-09-17T12:42:52.474Z,99.99
2022-09-17T12:43:52.492Z,99.99
2022-09-17T12:44:52.511Z,99.99
2022-09-17T12:45:52.528Z,99.99
2022-09-17T12:46:52.596Z,99.99
2022-09-17T12:47:52.567Z,99.99
2022-09-17T12:48:52.582Z,99.99
2022-09-17T12:49:52.603Z,99.99
2022-09-17T12:50:52.618Z,99.99
2022-09-17T12:51:52.638Z,99.99
2022-09-17T12:52:52.657Z,99.99